sensor_id;sensor_type;location;lat;lon;timestamp;P1;durP1;ratioP1;P2;durP2;ratioP2
75064;SDS011;63646;49.110;9.140;2023-02-04T05:02:36;0.82;;;0.82;;
75064;SDS011;63646;49.110;9.140;2023-02-04T05:05:02;1.58;;;1.20;;
75064;SDS011;63646;49.110;9.140;2023-02-04T05:07:28;3.33;;;1.10;;
75064;SDS011;63646;49.110;9.140;2023-02-04T05:09:53;1.33;;;0.90;;
75064;SDS011;63646;49.110;9.140;2023-02-04T05:12:19;1.17;;;0.90;;
75064;SDS011;63646;49.110;9.140;2023-02-04T05:14:44;1.50;;;1.20;;
75064;SDS011;63646;49.110;9.140;2023-02-04T05:17:10;1.08;;;0.98;;
75064;SDS011;63646;49.110;9.140;2023-02-04T05:19:36;1.30;;;1.10;;
75064;SDS011;63646;49.110;9.140;2023-02-04T05:22:01;1.08;;;0.77;;
75064;SDS011;63646;49.110;9.140;2023-02-04T05:24:27;1.45;;;0.98;;
75064;SDS011;63646;49.110;9.140;2023-02-04T05:26:53;2.22;;;1.30;;
75064;SDS011;63646;49.110;9.140;2023-02-04T05:29:18;1.10;;;1.00;;
75064;SDS011;63646;49.110;9.140;2023-02-04T05:31:44;1.80;;;1.10;;
75064;SDS011;63646;49.110;9.140;2023-02-04T05:34:09;1.07;;;1.03;;
75064;SDS011;63646;49.110;9.140;2023-02-04T05:36:34;1.92;;;1.00;;
75064;SDS011;63646;49.110;9.140;2023-02-04T05:39:00;0.90;;;0.90;;
75064;SDS011;63646;49.110;9.140;2023-02-04T05:41:26;1.33;;;1.00;;
75064;SDS011;63646;49.110;9.140;2023-02-04T05:43:51;0.95;;;0.95;;
75064;SDS011;63646;49.110;9.140;2023-02-04T05:46:16;0.93;;;0.90;;
75064;SDS011;63646;49.110;9.140;2023-02-04T05:48:42;1.30;;;1.00;;
75064;SDS011;63646;49.110;9.140;2023-02-04T05:51:07;0.90;;;0.90;;
75064;SDS011;63646;49.110;9.140;2023-02-04T05:53:33;0.98;;;0.98;;
75064;SDS011;63646;49.110;9.140;2023-02-04T05:55:58;0.95;;;0.90;;
75064;SDS011;63646;49.110;9.140;2023-02-04T05:58:24;1.20;;;1.10;;
75064;SDS011;63646;49.110;9.140;2023-02-04T06:00:49;1.23;;;1.00;;
75064;SDS011;63646;49.110;9.140;2023-02-04T06:03:14;1.20;;;1.00;;
75064;SDS011;63646;49.110;9.140;2023-02-04T06:05:40;1.60;;;1.00;;
75064;SDS011;63646;49.110;9.140;2023-02-04T06:08:08;1.08;;;0.98;;
75064;SDS011;63646;49.110;9.140;2023-02-04T06:10:35;1.80;;;1.17;;
75064;SDS011;63646;49.110;9.140;2023-02-04T06:13:00;1.27;;;0.90;;
75064;SDS011;63646;49.110;9.140;2023-02-04T06:15:25;1.13;;;1.02;;
75064;SDS011;63646;49.110;9.140;2023-02-04T06:17:51;2.40;;;1.05;;
75064;SDS011;63646;49.110;9.140;2023-02-04T06:20:17;2.25;;;1.00;;
75064;SDS011;63646;49.110;9.140;2023-02-04T06:22:42;1.52;;;1.13;;
75064;SDS011;63646;49.110;9.140;2023-02-04T06:25:08;0.90;;;0.90;;
75064;SDS011;63646;49.110;9.140;2023-02-04T06:27:33;0.90;;;0.90;;
75064;SDS011;63646;49.110;9.140;2023-02-04T06:29:59;0.80;;;0.80;;
75064;SDS011;63646;49.110;9.140;2023-02-04T06:32:24;1.98;;;1.10;;
75064;SDS011;63646;49.110;9.140;2023-02-04T06:34:50;0.77;;;0.77;;
75064;SDS011;63646;49.110;9.140;2023-02-04T06:37:15;1.77;;;1.10;;
75064;SDS011;63646;49.110;9.140;2023-02-04T06:39:41;1.13;;;1.02;;
75064;SDS011;63646;49.110;9.140;2023-02-04T06:42:07;1.15;;;0.90;;
75064;SDS011;63646;49.110;9.140;2023-02-04T06:44:33;1.00;;;1.00;;
75064;SDS011;63646;49.110;9.140;2023-02-04T06:46:58;0.85;;;0.80;;
75064;SDS011;63646;49.110;9.140;2023-02-04T06:49:24;1.38;;;1.10;;
75064;SDS011;63646;49.110;9.140;2023-02-04T06:51:49;0.98;;;0.98;;
75064;SDS011;63646;49.110;9.140;2023-02-04T06:54:15;1.15;;;1.15;;
75064;SDS011;63646;49.110;9.140;2023-02-04T06:56:41;1.05;;;0.95;;
75064;SDS011;63646;49.110;9.140;2023-02-04T06:59:08;0.90;;;0.90;;
75064;SDS011;63646;49.110;9.140;2023-02-04T07:01:34;1.10;;;0.90;;
75064;SDS011;63646;49.110;9.140;2023-02-04T07:03:59;0.93;;;0.93;;
75064;SDS011;63646;49.110;9.140;2023-02-04T07:06:25;0.95;;;0.95;;
75064;SDS011;63646;49.110;9.140;2023-02-04T07:08:50;0.90;;;0.90;;
75064;SDS011;63646;49.110;9.140;2023-02-04T07:11:16;0.85;;;0.85;;
75064;SDS011;63646;49.110;9.140;2023-02-04T07:13:41;0.98;;;0.90;;
75064;SDS011;63646;49.110;9.140;2023-02-04T07:16:07;1.17;;;1.08;;
75064;SDS011;63646;49.110;9.140;2023-02-04T07:18:32;1.10;;;0.95;;
75064;SDS011;63646;49.110;9.140;2023-02-04T07:20:58;1.30;;;0.90;;
75064;SDS011;63646;49.110;9.140;2023-02-04T07:23:23;0.80;;;0.80;;
75064;SDS011;63646;49.110;9.140;2023-02-04T07:25:49;0.90;;;0.90;;
75064;SDS011;63646;49.110;9.140;2023-02-04T07:28:18;0.90;;;0.90;;
75064;SDS011;63646;49.110;9.140;2023-02-04T07:30:43;0.90;;;0.90;;
75064;SDS011;63646;49.110;9.140;2023-02-04T07:33:09;0.90;;;0.90;;
75064;SDS011;63646;49.110;9.140;2023-02-04T07:35:35;0.95;;;0.95;;
75064;SDS011;63646;49.110;9.140;2023-02-04T07:38:02;1.15;;;1.10;;
75064;SDS011;63646;49.110;9.140;2023-02-04T07:40:28;0.80;;;0.80;;
75064;SDS011;63646;49.110;9.140;2023-02-04T07:42:53;0.90;;;0.90;;
75064;SDS011;63646;49.110;9.140;2023-02-04T07:45:18;1.13;;;1.00;;
75064;SDS011;63646;49.110;9.140;2023-02-04T07:47:44;1.00;;;0.90;;
75064;SDS011;63646;49.110;9.140;2023-02-04T07:50:09;1.10;;;1.00;;
75064;SDS011;63646;49.110;9.140;2023-02-04T07:52:35;1.52;;;1.10;;
75064;SDS011;63646;49.110;9.140;2023-02-04T07:55:00;1.10;;;1.00;;
75064;SDS011;63646;49.110;9.140;2023-02-04T07:57:25;1.65;;;1.10;;
75064;SDS011;63646;49.110;9.140;2023-02-04T07:59:51;0.95;;;0.90;;
75064;SDS011;63646;49.110;9.140;2023-02-04T08:02:16;1.05;;;0.80;;
75064;SDS011;63646;49.110;9.140;2023-02-04T08:04:42;0.80;;;0.80;;
75064;SDS011;63646;49.110;9.140;2023-02-04T08:07:07;0.93;;;0.90;;
75064;SDS011;63646;49.110;9.140;2023-02-04T08:09:33;1.85;;;1.10;;
75064;SDS011;63646;49.110;9.140;2023-02-04T08:11:58;0.95;;;0.90;;
75064;SDS011;63646;49.110;9.140;2023-02-04T08:14:24;0.80;;;0.80;;
75064;SDS011;63646;49.110;9.140;2023-02-04T08:16:49;2.55;;;0.93;;
75064;SDS011;63646;49.110;9.140;2023-02-04T08:19:15;1.13;;;1.05;;
75064;SDS011;63646;49.110;9.140;2023-02-04T08:21:46;0.95;;;0.95;;
75064;SDS011;63646;49.110;9.140;2023-02-04T08:24:12;2.58;;;1.00;;
75064;SDS011;63646;49.110;9.140;2023-02-04T08:26:39;1.75;;;0.82;;
75064;SDS011;63646;49.110;9.140;2023-02-04T08:29:06;3.95;;;1.00;;
75064;SDS011;63646;49.110;9.140;2023-02-04T08:31:35;1.92;;;1.00;;
75064;SDS011;63646;49.110;9.140;2023-02-04T08:34:02;2.70;;;0.95;;
75064;SDS011;63646;49.110;9.140;2023-02-04T08:36:29;1.25;;;0.90;;
75064;SDS011;63646;49.110;9.140;2023-02-04T08:38:54;3.03;;;0.95;;
75064;SDS011;63646;49.110;9.140;2023-02-04T08:41:19;1.08;;;1.08;;
75064;SDS011;63646;49.110;9.140;2023-02-04T08:43:45;3.63;;;0.98;;
75064;SDS011;63646;49.110;9.140;2023-02-04T08:46:10;1.13;;;0.90;;
75064;SDS011;63646;49.110;9.140;2023-02-04T08:48:35;2.22;;;0.88;;
75064;SDS011;63646;49.110;9.140;2023-02-04T08:51:02;2.53;;;1.02;;
75064;SDS011;63646;49.110;9.140;2023-02-04T08:53:27;1.30;;;1.20;;
75064;SDS011;63646;49.110;9.140;2023-02-04T08:55:53;1.42;;;0.85;;
75064;SDS011;63646;49.110;9.140;2023-02-04T08:58:18;1.35;;;0.98;;
75064;SDS011;63646;49.110;9.140;2023-02-04T09:00:44;0.85;;;0.85;;
75064;SDS011;63646;49.110;9.140;2023-02-04T09:03:09;1.73;;;0.90;;
75064;SDS011;63646;49.110;9.140;2023-02-04T09:05:34;1.25;;;0.93;;
75064;SDS011;63646;49.110;9.140;2023-02-04T09:08:00;0.95;;;0.80;;
75064;SDS011;63646;49.110;9.140;2023-02-04T09:10:25;2.10;;;0.90;;
75064;SDS011;63646;49.110;9.140;2023-02-04T09:12:50;1.10;;;1.10;;
75064;SDS011;63646;49.110;9.140;2023-02-04T09:15:19;1.10;;;0.90;;
75064;SDS011;63646;49.110;9.140;2023-02-04T09:17:46;0.88;;;0.88;;
75064;SDS011;63646;49.110;9.140;2023-02-04T09:20:11;0.70;;;0.70;;
75064;SDS011;63646;49.110;9.140;2023-02-04T09:22:37;0.98;;;0.80;;
75064;SDS011;63646;49.110;9.140;2023-02-04T09:25:03;0.80;;;0.80;;
75064;SDS011;63646;49.110;9.140;2023-02-04T09:27:29;1.08;;;0.88;;
75064;SDS011;63646;49.110;9.140;2023-02-04T09:29:54;1.30;;;0.70;;
75064;SDS011;63646;49.110;9.140;2023-02-04T09:32:20;1.63;;;1.20;;
75064;SDS011;63646;49.110;9.140;2023-02-04T09:34:45;0.65;;;0.65;;
75064;SDS011;63646;49.110;9.140;2023-02-04T09:37:11;1.17;;;0.90;;
75064;SDS011;63646;49.110;9.140;2023-02-04T09:39:36;1.83;;;1.10;;
75064;SDS011;63646;49.110;9.140;2023-02-04T09:42:02;1.20;;;0.90;;
75064;SDS011;63646;49.110;9.140;2023-02-04T09:44:28;1.20;;;0.90;;
75064;SDS011;63646;49.110;9.140;2023-02-04T09:46:55;1.60;;;1.00;;
75064;SDS011;63646;49.110;9.140;2023-02-04T09:49:22;1.25;;;1.10;;
75064;SDS011;63646;49.110;9.140;2023-02-04T09:51:48;1.10;;;1.00;;
75064;SDS011;63646;49.110;9.140;2023-02-04T09:54:18;2.67;;;1.00;;
75064;SDS011;63646;49.110;9.140;2023-02-04T09:56:46;1.33;;;1.00;;
75064;SDS011;63646;49.110;9.140;2023-02-04T09:59:13;0.82;;;0.73;;
75064;SDS011;63646;49.110;9.140;2023-02-04T10:01:44;0.80;;;0.80;;
75064;SDS011;63646;49.110;9.140;2023-02-04T10:04:16;0.77;;;0.73;;
75064;SDS011;63646;49.110;9.140;2023-02-04T10:06:42;0.80;;;0.80;;
75064;SDS011;63646;49.110;9.140;2023-02-04T10:09:11;3.60;;;1.40;;
75064;SDS011;63646;49.110;9.140;2023-02-04T10:11:39;0.98;;;0.80;;
75064;SDS011;63646;49.110;9.140;2023-02-04T10:14:07;1.00;;;0.95;;
75064;SDS011;63646;49.110;9.140;2023-02-04T10:16:38;1.02;;;0.80;;
75064;SDS011;63646;49.110;9.140;2023-02-04T10:19:10;1.30;;;0.90;;
75064;SDS011;63646;49.110;9.140;2023-02-04T10:21:39;0.80;;;0.80;;
75064;SDS011;63646;49.110;9.140;2023-02-04T10:24:12;1.38;;;1.10;;
75064;SDS011;63646;49.110;9.140;2023-02-04T10:26:41;0.70;;;0.63;;
75064;SDS011;63646;49.110;9.140;2023-02-04T10:29:11;0.80;;;0.80;;
75064;SDS011;63646;49.110;9.140;2023-02-04T10:31:39;1.10;;;1.10;;
75064;SDS011;63646;49.110;9.140;2023-02-04T10:34:49;0.70;;;0.70;;
75064;SDS011;63646;49.110;9.140;2023-02-04T10:37:10;1.10;;;0.80;;
75064;SDS011;63646;49.110;9.140;2023-02-04T10:39:45;0.88;;;0.88;;
75064;SDS011;63646;49.110;9.140;2023-02-04T10:42:26;0.88;;;0.70;;
75064;SDS011;63646;49.110;9.140;2023-02-04T10:44:53;1.00;;;1.00;;
75064;SDS011;63646;49.110;9.140;2023-02-04T10:47:22;1.23;;;0.90;;
75064;SDS011;63646;49.110;9.140;2023-02-04T10:49:51;0.70;;;0.70;;
75064;SDS011;63646;49.110;9.140;2023-02-04T10:52:16;1.30;;;0.82;;
75064;SDS011;63646;49.110;9.140;2023-02-04T10:54:48;0.80;;;0.80;;
75064;SDS011;63646;49.110;9.140;2023-02-04T10:59:48;0.80;;;0.80;;
75064;SDS011;63646;49.110;9.140;2023-02-04T11:05:16;1.92;;;0.77;;
75064;SDS011;63646;49.110;9.140;2023-02-04T11:07:50;1.65;;;0.90;;
75064;SDS011;63646;49.110;9.140;2023-02-04T11:10:16;0.93;;;0.80;;
75064;SDS011;63646;49.110;9.140;2023-02-04T11:12:45;1.38;;;0.80;;
75064;SDS011;63646;49.110;9.140;2023-02-04T11:20:45;1.67;;;0.85;;
75064;SDS011;63646;49.110;9.140;2023-02-04T11:23:12;2.50;;;0.90;;
75064;SDS011;63646;49.110;9.140;2023-02-04T11:25:39;2.25;;;1.00;;
75064;SDS011;63646;49.110;9.140;2023-02-04T11:28:15;1.45;;;0.90;;
75064;SDS011;63646;49.110;9.140;2023-02-04T11:30:57;0.85;;;0.80;;
75064;SDS011;63646;49.110;9.140;2023-02-04T11:33:37;1.40;;;0.90;;
75064;SDS011;63646;49.110;9.140;2023-02-04T11:36:07;1.20;;;1.02;;
75064;SDS011;63646;49.110;9.140;2023-02-04T11:38:37;2.75;;;1.00;;
75064;SDS011;63646;49.110;9.140;2023-02-04T11:41:03;2.65;;;1.15;;
75064;SDS011;63646;49.110;9.140;2023-02-04T11:43:33;1.67;;;0.77;;
75064;SDS011;63646;49.110;9.140;2023-02-04T11:46:09;0.93;;;0.80;;
75064;SDS011;63646;49.110;9.140;2023-02-04T11:48:43;1.35;;;0.80;;
75064;SDS011;63646;49.110;9.140;2023-02-04T11:51:13;1.48;;;0.98;;
75064;SDS011;63646;49.110;9.140;2023-02-04T11:53:40;3.28;;;1.30;;
75064;SDS011;63646;49.110;9.140;2023-02-04T11:56:06;2.95;;;0.82;;
75064;SDS011;63646;49.110;9.140;2023-02-04T11:58:32;1.33;;;1.00;;
75064;SDS011;63646;49.110;9.140;2023-02-04T12:00:57;1.77;;;1.10;;
75064;SDS011;63646;49.110;9.140;2023-02-04T12:03:30;1.13;;;1.02;;
75064;SDS011;63646;49.110;9.140;2023-02-04T12:06:00;3.17;;;1.00;;
75064;SDS011;63646;49.110;9.140;2023-02-04T12:13:51;2.35;;;0.80;;
75064;SDS011;63646;49.110;9.140;2023-02-04T12:16:18;1.42;;;0.90;;
75064;SDS011;63646;49.110;9.140;2023-02-04T12:18:44;2.30;;;0.90;;
75064;SDS011;63646;49.110;9.140;2023-02-04T12:21:10;1.25;;;1.02;;
75064;SDS011;63646;49.110;9.140;2023-02-04T12:23:38;2.10;;;0.70;;
75064;SDS011;63646;49.110;9.140;2023-02-04T12:26:06;2.25;;;0.90;;
75064;SDS011;63646;49.110;9.140;2023-02-04T12:28:32;1.77;;;1.10;;
75064;SDS011;63646;49.110;9.140;2023-02-04T12:30:59;3.72;;;1.60;;
75064;SDS011;63646;49.110;9.140;2023-02-04T12:33:24;0.77;;;0.77;;
75064;SDS011;63646;49.110;9.140;2023-02-04T12:35:50;2.08;;;0.90;;
75064;SDS011;63646;49.110;9.140;2023-02-04T12:38:16;2.13;;;0.90;;
75064;SDS011;63646;49.110;9.140;2023-02-04T12:40:41;1.35;;;1.05;;
75064;SDS011;63646;49.110;9.140;2023-02-04T12:43:07;1.02;;;0.90;;
75064;SDS011;63646;49.110;9.140;2023-02-04T12:45:32;1.35;;;0.90;;
75064;SDS011;63646;49.110;9.140;2023-02-04T12:47:58;1.30;;;1.20;;
75064;SDS011;63646;49.110;9.140;2023-02-04T12:50:23;2.95;;;1.10;;
75064;SDS011;63646;49.110;9.140;2023-02-04T12:52:50;1.58;;;0.80;;
75064;SDS011;63646;49.110;9.140;2023-02-04T12:55:17;1.77;;;0.90;;
75064;SDS011;63646;49.110;9.140;2023-02-04T12:57:43;1.10;;;1.00;;
75064;SDS011;63646;49.110;9.140;2023-02-04T13:00:09;0.80;;;0.80;;
75064;SDS011;63646;49.110;9.140;2023-02-04T13:02:36;1.40;;;0.80;;
75064;SDS011;63646;49.110;9.140;2023-02-04T13:05:01;0.88;;;0.88;;
75064;SDS011;63646;49.110;9.140;2023-02-04T13:07:27;0.70;;;0.70;;
75064;SDS011;63646;49.110;9.140;2023-02-04T13:09:53;1.25;;;0.80;;
75064;SDS011;63646;49.110;9.140;2023-02-04T13:12:18;1.83;;;0.90;;
75064;SDS011;63646;49.110;9.140;2023-02-04T13:14:43;1.05;;;0.95;;
75064;SDS011;63646;49.110;9.140;2023-02-04T13:17:09;2.08;;;0.90;;
75064;SDS011;63646;49.110;9.140;2023-02-04T13:19:35;0.80;;;0.80;;
75064;SDS011;63646;49.110;9.140;2023-02-04T13:22:00;0.82;;;0.80;;
75064;SDS011;63646;49.110;9.140;2023-02-04T13:24:27;3.80;;;1.45;;
75064;SDS011;63646;49.110;9.140;2023-02-04T13:26:53;2.38;;;0.80;;
75064;SDS011;63646;49.110;9.140;2023-02-04T13:29:19;3.00;;;1.10;;
75064;SDS011;63646;49.110;9.140;2023-02-04T13:34:11;3.58;;;1.35;;
75064;SDS011;63646;49.110;9.140;2023-02-04T13:36:39;3.53;;;1.13;;
75064;SDS011;63646;49.110;9.140;2023-02-04T13:39:07;4.70;;;1.30;;
75064;SDS011;63646;49.110;9.140;2023-02-04T13:41:33;1.88;;;1.10;;
75064;SDS011;63646;49.110;9.140;2023-02-04T13:44:00;3.75;;;1.27;;
75064;SDS011;63646;49.110;9.140;2023-02-04T13:46:26;3.40;;;1.00;;
75064;SDS011;63646;49.110;9.140;2023-02-04T13:48:52;4.70;;;1.20;;
75064;SDS011;63646;49.110;9.140;2023-02-04T13:51:18;2.33;;;1.15;;
75064;SDS011;63646;49.110;9.140;2023-02-04T13:53:43;2.47;;;0.95;;
75064;SDS011;63646;49.110;9.140;2023-02-04T13:56:12;3.47;;;1.30;;
75064;SDS011;63646;49.110;9.140;2023-02-04T13:58:37;4.45;;;1.20;;
75064;SDS011;63646;49.110;9.140;2023-02-04T14:01:16;1.95;;;0.95;;
75064;SDS011;63646;49.110;9.140;2023-02-04T14:03:45;2.10;;;0.85;;
75064;SDS011;63646;49.110;9.140;2023-02-04T14:06:11;4.93;;;1.15;;
75064;SDS011;63646;49.110;9.140;2023-02-04T14:08:37;1.92;;;1.00;;
75064;SDS011;63646;49.110;9.140;2023-02-04T14:11:02;2.63;;;0.95;;
75064;SDS011;63646;49.110;9.140;2023-02-04T14:13:29;1.77;;;0.82;;
75064;SDS011;63646;49.110;9.140;2023-02-04T14:15:55;1.00;;;0.75;;
75064;SDS011;63646;49.110;9.140;2023-02-04T14:18:20;2.63;;;1.08;;
75064;SDS011;63646;49.110;9.140;2023-02-04T14:20:46;3.33;;;1.00;;
75064;SDS011;63646;49.110;9.140;2023-02-04T14:23:11;2.92;;;1.27;;
75064;SDS011;63646;49.110;9.140;2023-02-04T14:25:37;3.15;;;0.90;;
75064;SDS011;63646;49.110;9.140;2023-02-04T14:28:03;2.25;;;1.17;;
75064;SDS011;63646;49.110;9.140;2023-02-04T14:30:29;3.40;;;1.10;;
75064;SDS011;63646;49.110;9.140;2023-02-04T14:35:24;3.70;;;1.00;;
75064;SDS011;63646;49.110;9.140;2023-02-04T14:37:53;2.30;;;1.13;;
75064;SDS011;63646;49.110;9.140;2023-02-04T14:40:19;1.58;;;0.90;;
75064;SDS011;63646;49.110;9.140;2023-02-04T14:42:45;2.38;;;1.15;;
75064;SDS011;63646;49.110;9.140;2023-02-04T14:45:19;3.17;;;1.05;;
75064;SDS011;63646;49.110;9.140;2023-02-04T14:47:45;3.58;;;0.95;;
75064;SDS011;63646;49.110;9.140;2023-02-04T14:50:12;2.60;;;1.05;;
75064;SDS011;63646;49.110;9.140;2023-02-04T14:52:39;3.22;;;1.10;;
75064;SDS011;63646;49.110;9.140;2023-02-04T14:55:05;4.65;;;0.93;;
75064;SDS011;63646;49.110;9.140;2023-02-04T14:57:31;3.28;;;1.05;;
75064;SDS011;63646;49.110;9.140;2023-02-04T14:59:56;6.85;;;1.05;;
75064;SDS011;63646;49.110;9.140;2023-02-04T15:02:21;5.03;;;0.98;;
75064;SDS011;63646;49.110;9.140;2023-02-04T15:04:47;3.40;;;0.95;;
75064;SDS011;63646;49.110;9.140;2023-02-04T15:07:13;2.15;;;1.05;;
75064;SDS011;63646;49.110;9.140;2023-02-04T15:09:38;3.50;;;0.95;;
75064;SDS011;63646;49.110;9.140;2023-02-04T15:12:04;2.88;;;1.05;;
75064;SDS011;63646;49.110;9.140;2023-02-04T15:14:30;4.00;;;1.17;;
75064;SDS011;63646;49.110;9.140;2023-02-04T15:16:55;2.25;;;0.90;;
75064;SDS011;63646;49.110;9.140;2023-02-04T15:19:21;1.92;;;1.00;;
75064;SDS011;63646;49.110;9.140;2023-02-04T15:21:49;4.03;;;1.00;;
75064;SDS011;63646;49.110;9.140;2023-02-04T15:24:14;2.40;;;1.00;;
75064;SDS011;63646;49.110;9.140;2023-02-04T15:26:42;1.88;;;1.10;;
75064;SDS011;63646;49.110;9.140;2023-02-04T15:29:08;1.50;;;0.90;;
75064;SDS011;63646;49.110;9.140;2023-02-04T15:31:33;2.45;;;0.90;;
75064;SDS011;63646;49.110;9.140;2023-02-04T15:34:01;1.67;;;1.00;;
75064;SDS011;63646;49.110;9.140;2023-02-04T15:36:27;1.75;;;0.82;;
75064;SDS011;63646;49.110;9.140;2023-02-04T15:38:52;1.45;;;0.90;;
75064;SDS011;63646;49.110;9.140;2023-02-04T15:41:18;3.15;;;1.00;;
75064;SDS011;63646;49.110;9.140;2023-02-04T15:43:43;2.58;;;1.00;;
75064;SDS011;63646;49.110;9.140;2023-02-04T15:46:09;1.83;;;0.85;;
75064;SDS011;63646;49.110;9.140;2023-02-04T15:48:37;1.35;;;0.90;;
75064;SDS011;63646;49.110;9.140;2023-02-04T15:51:02;2.75;;;1.20;;
75064;SDS011;63646;49.110;9.140;2023-02-04T15:53:30;2.05;;;0.90;;
75064;SDS011;63646;49.110;9.140;2023-02-04T15:55:56;4.10;;;1.45;;
75064;SDS011;63646;49.110;9.140;2023-02-04T15:58:21;2.22;;;0.90;;
75064;SDS011;63646;49.110;9.140;2023-02-04T16:00:47;0.80;;;0.70;;
75064;SDS011;63646;49.110;9.140;2023-02-04T16:03:12;2.05;;;0.70;;
75064;SDS011;63646;49.110;9.140;2023-02-04T16:05:38;1.92;;;0.90;;
75064;SDS011;63646;49.110;9.140;2023-02-04T16:08:03;2.20;;;0.82;;
75064;SDS011;63646;49.110;9.140;2023-02-04T16:10:29;1.58;;;0.88;;
75064;SDS011;63646;49.110;9.140;2023-02-04T16:12:54;1.33;;;0.90;;
75064;SDS011;63646;49.110;9.140;2023-02-04T16:15:22;1.35;;;0.93;;
75064;SDS011;63646;49.110;9.140;2023-02-04T16:17:48;0.93;;;0.70;;
75064;SDS011;63646;49.110;9.140;2023-02-04T16:20:15;2.05;;;0.90;;
75064;SDS011;63646;49.110;9.140;2023-02-04T16:22:40;2.22;;;0.80;;
75064;SDS011;63646;49.110;9.140;2023-02-04T16:25:06;2.70;;;1.00;;
75064;SDS011;63646;49.110;9.140;2023-02-04T16:27:32;0.80;;;0.80;;
75064;SDS011;63646;49.110;9.140;2023-02-04T16:29:58;2.20;;;1.20;;
75064;SDS011;63646;49.110;9.140;2023-02-04T16:32:24;0.80;;;0.70;;
75064;SDS011;63646;49.110;9.140;2023-02-04T16:34:50;2.45;;;0.85;;
75064;SDS011;63646;49.110;9.140;2023-02-04T16:37:16;1.45;;;1.00;;
75064;SDS011;63646;49.110;9.140;2023-02-04T16:39:42;2.15;;;0.95;;
75064;SDS011;63646;49.110;9.140;2023-02-04T16:42:12;1.85;;;0.98;;
75064;SDS011;63646;49.110;9.140;2023-02-04T16:44:38;1.50;;;1.10;;
75064;SDS011;63646;49.110;9.140;2023-02-04T16:47:06;4.32;;;0.90;;
75064;SDS011;63646;49.110;9.140;2023-02-04T16:49:36;0.70;;;0.70;;
75064;SDS011;63646;49.110;9.140;2023-02-04T16:52:01;1.00;;;0.90;;
75064;SDS011;63646;49.110;9.140;2023-02-04T16:54:32;2.40;;;0.95;;
75064;SDS011;63646;49.110;9.140;2023-02-04T16:56:58;1.27;;;0.90;;
75064;SDS011;63646;49.110;9.140;2023-02-04T16:59:25;1.35;;;0.88;;
75064;SDS011;63646;49.110;9.140;2023-02-04T17:01:52;1.30;;;0.90;;
75064;SDS011;63646;49.110;9.140;2023-02-04T17:04:17;1.45;;;0.80;;
75064;SDS011;63646;49.110;9.140;2023-02-04T17:06:43;1.52;;;0.80;;
75064;SDS011;63646;49.110;9.140;2023-02-04T17:09:08;1.80;;;0.77;;
75064;SDS011;63646;49.110;9.140;2023-02-04T17:11:34;1.58;;;0.90;;
75064;SDS011;63646;49.110;9.140;2023-02-04T17:16:30;2.65;;;0.82;;
75064;SDS011;63646;49.110;9.140;2023-02-04T17:18:56;1.17;;;0.88;;
75064;SDS011;63646;49.110;9.140;2023-02-04T17:21:23;0.85;;;0.80;;
75064;SDS011;63646;49.110;9.140;2023-02-04T17:23:49;2.25;;;0.82;;
75064;SDS011;63646;49.110;9.140;2023-02-04T17:26:15;1.77;;;0.80;;
75064;SDS011;63646;49.110;9.140;2023-02-04T17:28:44;1.42;;;0.75;;
75064;SDS011;63646;49.110;9.140;2023-02-04T17:31:09;1.30;;;0.90;;
75064;SDS011;63646;49.110;9.140;2023-02-04T17:33:35;0.73;;;0.60;;
75064;SDS011;63646;49.110;9.140;2023-02-04T17:36:04;1.67;;;0.98;;
75064;SDS011;63646;49.110;9.140;2023-02-04T17:38:34;0.82;;;0.82;;
75064;SDS011;63646;49.110;9.140;2023-02-04T17:40:59;1.00;;;0.90;;
75064;SDS011;63646;49.110;9.140;2023-02-04T17:43:26;1.50;;;0.90;;
75064;SDS011;63646;49.110;9.140;2023-02-04T17:45:52;1.67;;;0.93;;
75064;SDS011;63646;49.110;9.140;2023-02-04T17:48:17;1.45;;;1.13;;
75064;SDS011;63646;49.110;9.140;2023-02-04T17:50:46;1.25;;;0.70;;
75064;SDS011;63646;49.110;9.140;2023-02-04T17:53:18;1.85;;;0.80;;
75064;SDS011;63646;49.110;9.140;2023-02-04T17:55:47;1.35;;;0.73;;
75064;SDS011;63646;49.110;9.140;2023-02-04T17:58:14;0.90;;;0.90;;
75064;SDS011;63646;49.110;9.140;2023-02-04T18:00:43;1.50;;;0.90;;
75064;SDS011;63646;49.110;9.140;2023-02-04T18:03:14;0.88;;;0.70;;
75064;SDS011;63646;49.110;9.140;2023-02-04T18:05:50;0.80;;;0.80;;
75064;SDS011;63646;49.110;9.140;2023-02-04T18:08:28;0.55;;;0.55;;
75064;SDS011;63646;49.110;9.140;2023-02-04T18:11:25;0.88;;;0.88;;
75064;SDS011;63646;49.110;9.140;2023-02-04T18:13:52;2.20;;;0.70;;
75064;SDS011;63646;49.110;9.140;2023-02-04T18:16:29;1.15;;;1.00;;
75064;SDS011;63646;49.110;9.140;2023-02-04T18:19:24;0.90;;;0.68;;
75064;SDS011;63646;49.110;9.140;2023-02-04T18:21:52;0.90;;;0.80;;
75064;SDS011;63646;49.110;9.140;2023-02-04T18:24:23;2.20;;;0.80;;
75064;SDS011;63646;49.110;9.140;2023-02-04T18:26:54;0.63;;;0.63;;
75064;SDS011;63646;49.110;9.140;2023-02-04T18:29:39;1.63;;;0.70;;
75064;SDS011;63646;49.110;9.140;2023-02-04T18:34:33;0.93;;;0.70;;
75064;SDS011;63646;49.110;9.140;2023-02-04T18:42:48;1.48;;;0.80;;
75064;SDS011;63646;49.110;9.140;2023-02-04T18:45:22;0.70;;;0.70;;
75064;SDS011;63646;49.110;9.140;2023-02-04T18:50:46;11.75;;;7.38;;
75064;SDS011;63646;49.110;9.140;2023-02-04T18:56:08;8.60;;;4.60;;
75064;SDS011;63646;49.110;9.140;2023-02-04T19:01:21;11.15;;;5.97;;
75064;SDS011;63646;49.110;9.140;2023-02-04T19:03:54;14.32;;;7.40;;
75064;SDS011;63646;49.110;9.140;2023-02-04T19:06:45;8.90;;;5.25;;
75064;SDS011;63646;49.110;9.140;2023-02-04T19:09:26;12.02;;;4.68;;
75064;SDS011;63646;49.110;9.140;2023-02-04T19:11:58;7.78;;;4.20;;
75064;SDS011;63646;49.110;9.140;2023-02-04T19:14:38;13.68;;;4.00;;
75064;SDS011;63646;49.110;9.140;2023-02-04T19:31:03;6.28;;;3.78;;
75064;SDS011;63646;49.110;9.140;2023-02-04T19:33:31;5.60;;;3.40;;
75064;SDS011;63646;49.110;9.140;2023-02-04T19:36:13;5.40;;;3.42;;
75064;SDS011;63646;49.110;9.140;2023-02-04T19:41:45;4.47;;;3.30;;
75064;SDS011;63646;49.110;9.140;2023-02-04T19:46:41;4.90;;;3.30;;
75064;SDS011;63646;49.110;9.140;2023-02-04T19:49:11;4.75;;;3.13;;
75064;SDS011;63646;49.110;9.140;2023-02-04T19:51:47;4.85;;;3.00;;
75064;SDS011;63646;49.110;9.140;2023-02-04T19:54:21;4.85;;;3.00;;
75064;SDS011;63646;49.110;9.140;2023-02-04T19:56:51;4.05;;;2.80;;
75064;SDS011;63646;49.110;9.140;2023-02-04T19:59:23;4.63;;;3.38;;
75064;SDS011;63646;49.110;9.140;2023-02-04T20:01:52;3.70;;;2.92;;
75064;SDS011;63646;49.110;9.140;2023-02-04T20:04:23;4.80;;;2.70;;
75064;SDS011;63646;49.110;9.140;2023-02-04T20:06:49;4.05;;;3.10;;
75064;SDS011;63646;49.110;9.140;2023-02-04T20:09:18;5.25;;;2.85;;
75064;SDS011;63646;49.110;9.140;2023-02-04T20:12:00;6.68;;;2.90;;
75064;SDS011;63646;49.110;9.140;2023-02-04T20:19:36;3.75;;;2.60;;
75064;SDS011;63646;49.110;9.140;2023-02-04T20:31:40;5.00;;;2.50;;
75064;SDS011;63646;49.110;9.140;2023-02-04T20:34:08;5.07;;;3.20;;
75064;SDS011;63646;49.110;9.140;2023-02-04T20:36:46;3.70;;;2.38;;
75064;SDS011;63646;49.110;9.140;2023-02-04T20:39:34;5.28;;;2.70;;
75064;SDS011;63646;49.110;9.140;2023-02-04T20:42:05;6.07;;;2.60;;
75064;SDS011;63646;49.110;9.140;2023-02-04T20:44:40;3.72;;;2.63;;
75064;SDS011;63646;49.110;9.140;2023-02-04T20:49:41;3.67;;;2.50;;
75064;SDS011;63646;49.110;9.140;2023-02-04T20:55:25;3.78;;;2.55;;
75064;SDS011;63646;49.110;9.140;2023-02-04T20:58:36;6.85;;;2.72;;
75064;SDS011;63646;49.110;9.140;2023-02-04T21:00:45;6.78;;;2.40;;
75064;SDS011;63646;49.110;9.140;2023-02-04T21:06:28;6.65;;;2.67;;
75064;SDS011;63646;49.110;9.140;2023-02-04T21:08:56;3.08;;;2.60;;
75064;SDS011;63646;49.110;9.140;2023-02-04T21:11:23;5.25;;;2.50;;
75064;SDS011;63646;49.110;9.140;2023-02-04T21:13:52;3.88;;;2.30;;
75064;SDS011;63646;49.110;9.140;2023-02-04T21:16:21;3.83;;;2.30;;